Time;durP1;ratioP1;P1;durP2;ratioP2;P2;SDS_P1;SDS_P2;PMS_P1;PMS_P2;Temp;Humidity;BMP_temperature;BMP_pressure;BME280_temperature;BME280_humidity;BME280_pressure;Samples;Min_cycle;Max_cycle;Signal;HPM_P1;HPM_P2
2022/07/13 00:02:10;;;;;;;5.05;2.00;;;24.30;87.60;;;;;;5137233;27;20047;-74
2022/07/13 00:04:35;;;;;;;3.05;1.85;;;24.30;87.80;;;;;;5124896;27;20043;-74
2022/07/13 00:07:01;;;;;;;6.40;2.65;;;24.30;88.60;;;;;;5124648;27;20039;-74
2022/07/13 00:09:27;;;;;;;4.00;1.80;;;24.20;88.20;;;;;;5124315;27;20051;-74
2022/07/13 00:11:52;;;;;;;3.38;1.98;;;24.20;88.50;;;;;;5125112;27;20043;-74
2022/07/13 00:14:18;;;;;;;5.38;1.77;;;24.20;88.40;;;;;;5124432;27;20417;-74
2022/07/13 00:16:44;;;;;;;4.75;1.75;;;24.20;88.20;;;;;;5122756;27;20039;-75
2022/07/13 00:19:10;;;;;;;7.03;2.00;;;24.10;88.20;;;;;;5122468;27;20517;-74
2022/07/13 00:21:35;;;;;;;8.02;1.90;;;24.10;88.20;;;;;;5123487;27;20044;-74
2022/07/13 00:24:01;;;;;;;8.70;2.10;;;24.10;88.30;;;;;;5123340;27;20038;-74
2022/07/13 00:26:27;;;;;;;2.63;1.55;;;24.10;88.30;;;;;;5124040;27;20039;-74
2022/07/13 00:28:53;;;;;;;4.47;2.10;;;24.10;88.30;;;;;;5124403;27;20046;-74
2022/07/13 00:31:19;;;;;;;11.25;2.60;;;24.00;88.30;;;;;;5124346;27;20038;-74
2022/07/13 00:33:45;;;;;;;3.90;2.15;;;24.00;88.20;;;;;;5123599;27;20495;-74
2022/07/13 00:36:10;;;;;;;3.92;2.10;;;24.00;88.20;;;;;;5122544;27;20044;-74
2022/07/13 00:38:36;;;;;;;3.75;1.70;;;24.00;89.10;;;;;;5125088;27;20126;-74
2022/07/13 00:41:05;;;;;;;3.92;1.70;;;23.90;88.50;;;;;;5122909;27;20662;-74
2022/07/13 00:43:31;;;;;;;3.20;1.77;;;23.90;88.40;;;;;;5124727;27;20067;-74
2022/07/13 00:45:57;;;;;;;4.55;1.75;;;23.90;88.50;;;;;;5124415;27;20384;-74
2022/07/13 00:48:22;;;;;;;4.10;1.90;;;23.90;88.40;;;;;;5122067;27;20513;-74
2022/07/13 00:50:50;;;;;;;3.58;2.10;;;23.90;88.40;;;;;;5123350;27;20039;-75
2022/07/13 00:53:17;;;;;;;6.05;2.05;;;23.80;88.30;;;;;;5122331;27;20332;-75
2022/07/13 00:55:44;;;;;;;8.38;2.25;;;23.80;88.40;;;;;;5122776;27;20035;-74
2022/07/13 00:58:10;;;;;;;5.60;1.88;;;23.80;88.40;;;;;;5121481;27;20563;-75
2022/07/13 01:00:36;;;;;;;7.20;2.22;;;23.80;88.40;;;;;;5124195;27;20123;-75
2022/07/13 01:03:02;;;;;;;4.35;2.10;;;23.80;88.20;;;;;;5124434;27;20058;-75
2022/07/13 01:05:28;;;;;;;6.28;1.83;;;23.80;88.10;;;;;;5123398;27;20038;-75
2022/07/13 01:07:54;;;;;;;6.07;2.33;;;23.70;88.20;;;;;;5125721;27;20058;-75
2022/07/13 01:10:21;;;;;;;6.18;1.80;;;23.70;88.10;;;;;;5124676;27;20165;-75
2022/07/13 01:12:47;;;;;;;5.65;2.10;;;23.70;88.10;;;;;;5124103;27;20042;-75
2022/07/13 01:15:12;;;;;;;9.18;2.38;;;23.70;88.30;;;;;;5121648;27;20490;-75
2022/07/13 01:17:38;;;;;;;3.85;2.20;;;23.70;88.50;;;;;;5123129;27;20069;-75
2022/07/13 01:20:06;;;;;;;9.50;2.15;;;23.70;88.30;;;;;;5123839;27;20301;-74
2022/07/13 01:22:35;;;;;;;6.28;1.90;;;23.70;88.30;;;;;;5124644;27;20521;-75
2022/07/13 01:25:03;;;;;;;6.28;1.90;;;23.70;88.40;;;;;;5123322;27;20035;-74
2022/07/13 01:27:32;;;;;;;6.72;2.53;;;23.70;88.50;;;;;;5121930;27;20173;-75
2022/07/13 01:29:58;;;;;;;4.68;1.65;;;23.70;88.40;;;;;;5123907;27;20493;-75
2022/07/13 01:32:24;;;;;;;6.97;2.60;;;23.70;88.40;;;;;;5124456;27;20052;-75
2022/07/13 01:34:49;;;;;;;4.78;1.65;;;23.70;88.20;;;;;;5123694;27;20146;-75
2022/07/13 01:37:15;;;;;;;6.20;2.17;;;23.70;88.00;;;;;;5122606;27;20322;-75
2022/07/13 01:39:41;;;;;;;10.50;2.25;;;23.70;87.80;;;;;;5121957;27;20050;-75
2022/07/13 01:42:07;;;;;;;4.13;2.17;;;23.70;87.70;;;;;;5122472;27;20166;-75
2022/07/13 01:44:33;;;;;;;7.05;2.45;;;23.80;87.70;;;;;;5120010;27;20036;-75
2022/07/13 01:47:06;;;;;;;8.38;2.97;;;23.70;87.70;;;;;;5124413;27;20038;-75
2022/07/13 01:49:31;;;;;;;7.78;2.63;;;23.80;87.80;;;;;;5124575;27;20042;-75
2022/07/13 01:51:58;;;;;;;4.95;2.00;;;23.80;87.50;;;;;;5122552;27;20084;-75
2022/07/13 01:54:23;;;;;;;6.18;1.92;;;23.80;87.30;;;;;;5124468;27;20043;-75
2022/07/13 01:56:49;;;;;;;3.60;1.60;;;23.80;87.20;;;;;;5127624;27;20036;-75
2022/07/13 01:59:15;;;;;;;7.57;2.20;;;23.80;87.20;;;;;;5125571;27;20070;-75
2022/07/13 02:01:40;;;;;;;5.28;2.15;;;23.80;86.90;;;;;;5128287;27;20108;-75
2022/07/13 02:04:06;;;;;;;5.53;2.28;;;23.80;86.50;;;;;;5125053;27;20528;-75
2022/07/13 02:06:32;;;;;;;4.13;1.90;;;23.80;86.40;;;;;;5127486;27;20052;-74
2022/07/13 02:08:58;;;;;;;4.97;2.13;;;23.80;86.40;;;;;;5125024;27;20556;-75
2022/07/13 02:11:23;;;;;;;6.35;2.00;;;23.80;86.30;;;;;;5126818;27;20064;-75
2022/07/13 02:13:49;;;;;;;6.22;2.22;;;23.80;86.20;;;;;;5128156;27;20047;-75
2022/07/13 02:16:17;;;;;;;4.28;1.75;;;23.80;86.10;;;;;;5126117;27;20051;-75
2022/07/13 02:18:43;;;;;;;4.35;1.90;;;23.80;86.20;;;;;;5127780;27;20071;-75
2022/07/13 02:21:09;;;;;;;6.53;1.75;;;23.80;86.40;;;;;;5125811;27;20130;-75
2022/07/13 02:23:35;;;;;;;5.90;1.75;;;23.80;86.70;;;;;;5126611;27;20039;-75
2022/07/13 02:26:00;;;;;;;11.25;2.20;;;23.80;86.80;;;;;;5125015;27;20035;-75
2022/07/13 02:28:27;;;;;;;4.30;1.95;;;23.80;86.80;;;;;;5123743;27;20047;-75
2022/07/13 02:30:52;;;;;;;3.97;1.35;;;23.80;86.80;;;;;;5128069;27;20071;-75
2022/07/13 02:33:18;;;;;;;8.95;2.38;;;23.80;87.00;;;;;;5127064;27;20518;-75
2022/07/13 02:35:44;;;;;;;3.33;1.27;;;23.80;87.10;;;;;;5125195;27;20046;-75
2022/07/13 02:38:10;;;;;;;6.43;1.60;;;23.80;87.10;;;;;;5124281;27;21229;-75
2022/07/13 02:40:35;;;;;;;6.10;2.08;;;23.80;87.10;;;;;;5109331;27;20049;-75
2022/07/13 02:43:01;;;;;;;4.15;2.00;;;23.80;87.10;;;;;;5125875;27;20046;-75
2022/07/13 02:45:27;;;;;;;6.93;1.80;;;23.70;87.00;;;;;;5125512;27;20042;-75
2022/07/13 02:47:53;;;;;;;3.33;1.80;;;23.70;87.00;;;;;;5125938;27;20541;-74
2022/07/13 02:50:19;;;;;;;3.15;1.85;;;23.70;87.00;;;;;;5124441;27;20703;-75
2022/07/13 02:52:44;;;;;;;8.00;2.08;;;23.70;87.00;;;;;;5126635;27;20035;-75
2022/07/13 02:55:10;;;;;;;5.03;1.80;;;23.70;86.90;;;;;;5126724;27;20126;-75
2022/07/13 02:57:36;;;;;;;3.65;2.15;;;23.70;87.00;;;;;;5125103;27;20051;-74
2022/07/13 03:00:03;;;;;;;6.38;2.08;;;23.60;87.20;;;;;;5126631;27;20599;-75
2022/07/13 03:02:29;;;;;;;4.07;1.80;;;23.70;87.30;;;;;;5123457;27;20892;-75
2022/07/13 03:04:55;;;;;;;3.28;1.52;;;23.60;87.30;;;;;;5125216;27;20066;-75
2022/07/13 03:07:21;;;;;;;2.92;1.90;;;23.60;87.30;;;;;;5122447;27;20044;-75
2022/07/13 03:09:47;;;;;;;3.50;1.60;;;23.60;87.40;;;;;;5126435;27;20123;-75
2022/07/13 03:12:12;;;;;;;3.03;1.63;;;23.60;87.50;;;;;;5125063;27;20122;-75
2022/07/13 03:14:38;;;;;;;2.55;1.30;;;23.60;87.50;;;;;;5125577;27;20121;-75
2022/07/13 03:17:04;;;;;;;4.63;1.77;;;23.50;87.80;;;;;;5126650;27;20075;-75
2022/07/13 03:19:30;;;;;;;3.17;1.67;;;23.50;88.10;;;;;;5107775;27;20532;-75
2022/07/13 03:21:56;;;;;;;4.38;1.63;;;23.40;88.20;;;;;;5141220;27;20039;-74
2022/07/13 03:24:21;;;;;;;4.35;2.42;;;23.40;88.40;;;;;;5123958;27;20373;-75
2022/07/13 03:26:47;;;;;;;3.08;1.65;;;23.40;88.50;;;;;;5124219;27;20066;-74
2022/07/13 03:29:13;;;;;;;5.57;2.08;;;23.30;88.40;;;;;;5120492;27;20507;-75
2022/07/13 03:31:38;;;;;;;8.25;1.95;;;23.30;88.40;;;;;;5142045;27;20051;-75
2022/07/13 03:34:04;;;;;;;3.15;1.52;;;23.30;88.60;;;;;;5124622;27;21331;-74
2022/07/13 03:36:30;;;;;;;4.85;1.92;;;23.20;88.60;;;;;;5125788;27;20540;-75
2022/07/13 03:38:56;;;;;;;6.82;1.88;;;23.20;88.60;;;;;;5125373;27;20072;-75
2022/07/13 03:41:22;;;;;;;4.38;2.00;;;23.20;88.70;;;;;;5125943;27;20626;-75
2022/07/13 03:43:48;;;;;;;5.03;1.75;;;23.10;88.70;;;;;;5125772;27;20048;-75
2022/07/13 03:46:13;;;;;;;7.35;2.20;;;23.10;88.70;;;;;;5126154;27;20051;-75
2022/07/13 03:48:39;;;;;;;8.30;1.85;;;23.10;88.40;;;;;;5126374;27;20417;-75
2022/07/13 03:51:05;;;;;;;10.68;2.33;;;23.10;88.20;;;;;;5126337;27;20167;-75
2022/07/13 03:53:31;;;;;;;3.72;2.10;;;23.10;88.20;;;;;;5125945;27;20059;-75
2022/07/13 03:55:56;;;;;;;4.63;2.08;;;23.00;88.20;;;;;;5123338;27;20414;-75
2022/07/13 03:58:22;;;;;;;8.07;2.67;;;23.00;88.60;;;;;;5123957;27;20039;-75
2022/07/13 04:00:48;;;;;;;5.85;1.90;;;23.10;87.80;;;;;;5127424;27;20048;-75
2022/07/13 04:03:14;;;;;;;3.30;2.25;;;23.10;87.80;;;;;;5123909;27;20046;-75
2022/07/13 04:05:39;;;;;;;7.07;2.58;;;23.10;87.70;;;;;;5125003;27;20502;-75
2022/07/13 04:08:05;;;;;;;5.97;2.72;;;23.10;87.80;;;;;;5125135;27;20055;-75
2022/07/13 04:10:31;;;;;;;3.15;1.55;;;23.10;87.80;;;;;;5126149;27;20043;-74
2022/07/13 04:12:58;;;;;;;5.78;1.88;;;23.10;87.90;;;;;;5123099;27;20055;-75
2022/07/13 04:15:24;;;;;;;3.10;1.70;;;23.10;88.00;;;;;;5122223;27;20116;-75
2022/07/13 04:17:50;;;;;;;5.97;2.13;;;23.20;88.10;;;;;;5124319;27;20476;-75
2022/07/13 04:20:15;;;;;;;8.05;1.80;;;23.10;87.90;;;;;;5124575;27;20388;-75
2022/07/13 04:22:41;;;;;;;5.13;1.67;;;23.20;88.20;;;;;;5124647;27;20465;-75
2022/07/13 04:25:08;;;;;;;3.38;1.83;;;23.20;88.10;;;;;;5124942;27;20035;-75
2022/07/13 04:27:34;;;;;;;3.03;1.73;;;23.20;88.10;;;;;;5123978;27;20678;-76
2022/07/13 04:30:01;;;;;;;5.82;2.20;;;23.20;87.90;;;;;;5124807;27;20039;-75
2022/07/13 04:32:26;;;;;;;2.47;1.67;;;23.20;87.90;;;;;;5108905;27;20043;-74
2022/07/13 04:34:52;;;;;;;4.97;2.30;;;23.20;87.90;;;;;;5125231;27;20040;-75
2022/07/13 04:37:18;;;;;;;4.25;1.83;;;23.20;88.00;;;;;;5125886;27;20096;-75
2022/07/13 04:39:43;;;;;;;5.43;1.85;;;23.30;88.10;;;;;;5124653;27;20036;-75
2022/07/13 04:42:09;;;;;;;8.05;2.17;;;23.20;88.10;;;;;;5124101;27;20122;-75
2022/07/13 04:44:35;;;;;;;5.72;1.77;;;23.20;88.10;;;;;;5123464;27;20745;-75
2022/07/13 04:47:00;;;;;;;6.65;1.95;;;23.30;88.10;;;;;;5126102;27;20039;-75
2022/07/13 04:49:26;;;;;;;4.82;2.85;;;23.20;88.20;;;;;;5123814;27;20093;-75
2022/07/13 04:51:52;;;;;;;5.78;1.92;;;23.30;88.30;;;;;;5128135;27;20079;-75
2022/07/13 04:54:19;;;;;;;3.47;1.80;;;23.30;88.50;;;;;;5125933;27;20051;-75
2022/07/13 04:56:45;;;;;;;5.75;1.80;;;23.10;88.60;;;;;;5125190;27;20108;-75
2022/07/13 04:59:12;;;;;;;6.05;1.73;;;23.30;88.80;;;;;;5124617;27;20588;-75
2022/07/13 05:01:37;;;;;;;3.78;1.73;;;23.30;88.90;;;;;;5123312;27;20047;-75
2022/07/13 05:04:03;;;;;;;8.20;2.05;;;23.40;89.10;;;;;;5124013;27;20573;-76
2022/07/13 05:06:30;;;;;;;5.82;1.70;;;23.40;89.20;;;;;;5125312;27;20044;-75
2022/07/13 05:08:56;;;;;;;12.55;2.20;;;23.40;89.30;;;;;;5122812;27;20519;-75
2022/07/13 05:11:21;;;;;;;6.07;2.08;;;23.40;89.50;;;;;;5122389;27;20508;-75
2022/07/13 05:13:47;;;;;;;4.05;1.50;;;23.40;89.60;;;;;;5122325;27;20054;-75
2022/07/13 05:16:13;;;;;;;3.65;1.50;;;23.40;89.90;;;;;;5122851;27;20419;-75
2022/07/13 05:18:38;;;;;;;10.85;3.38;;;23.40;90.00;;;;;;5123914;27;20028;-75
2022/07/13 05:21:04;;;;;;;3.97;1.83;;;23.40;90.00;;;;;;5124797;27;20035;-74
2022/07/13 05:23:31;;;;;;;4.43;1.85;;;23.50;90.10;;;;;;5124063;27;20537;-75
2022/07/13 05:25:58;;;;;;;5.45;2.40;;;23.50;90.10;;;;;;5122441;27;20036;-75
2022/07/13 05:28:24;;;;;;;4.90;1.60;;;23.50;90.00;;;;;;5123294;27;20580;-75
2022/07/13 05:30:50;;;;;;;5.35;2.15;;;23.50;90.00;;;;;;5124829;27;20036;-75
2022/07/13 05:33:18;;;;;;;7.90;2.50;;;23.60;90.00;;;;;;5127458;27;20043;-75
2022/07/13 05:35:44;;;;;;;5.80;1.88;;;23.60;90.00;;;;;;5127720;27;20852;-74
2022/07/13 05:38:10;;;;;;;4.97;1.80;;;23.60;90.20;;;;;;5129350;27;20032;-75
2022/07/13 05:40:36;;;;;;;4.07;2.35;;;23.70;90.10;;;;;;5126778;27;20035;-75
2022/07/13 05:43:01;;;;;;;6.07;1.77;;;23.70;90.00;;;;;;5126368;27;20072;-75
2022/07/13 05:45:27;;;;;;;4.43;1.85;;;23.70;90.00;;;;;;5126510;27;20054;-75
2022/07/13 05:47:53;;;;;;;6.05;2.17;;;23.80;89.80;;;;;;5126072;27;20036;-75
2022/07/13 05:50:19;;;;;;;6.53;2.05;;;23.80;89.50;;;;;;5127222;27;20051;-74
2022/07/13 05:52:44;;;;;;;4.60;1.85;;;23.80;89.50;;;;;;5128241;27;20395;-75
2022/07/13 05:55:11;;;;;;;3.20;2.15;;;23.90;88.90;;;;;;5124798;27;20036;-75
2022/07/13 05:57:37;;;;;;;3.72;1.42;;;23.90;88.00;;;;;;5127739;27;20032;-75
2022/07/13 06:00:10;;;;;;;7.20;1.95;;;23.90;87.20;;;;;;5127697;27;20066;-75
2022/07/13 06:02:37;;;;;;;3.60;1.60;;;24.00;86.90;;;;;;5127845;27;20599;-75
2022/07/13 06:05:03;;;;;;;9.40;1.85;;;24.00;87.00;;;;;;5110818;27;20041;-75
2022/07/13 06:07:29;;;;;;;6.70;2.38;;;24.00;87.00;;;;;;5128088;27;20627;-75
2022/07/13 06:09:58;;;;;;;6.72;2.22;;;24.00;87.30;;;;;;5110602;27;20040;-75
2022/07/13 06:12:25;;;;;;;5.50;2.28;;;24.00;86.50;;;;;;5128881;27;20040;-75
2022/07/13 06:14:52;;;;;;;7.07;2.33;;;24.00;86.10;;;;;;5128357;27;20046;-75
2022/07/13 06:17:18;;;;;;;5.32;1.85;;;24.10;86.00;;;;;;5125623;27;20437;-75
2022/07/13 06:19:44;;;;;;;4.47;2.63;;;24.10;85.70;;;;;;5128190;27;20527;-75
2022/07/13 06:22:10;;;;;;;3.83;2.22;;;24.10;85.10;;;;;;5125327;27;20039;-75
2022/07/13 06:24:36;;;;;;;5.65;2.30;;;24.20;84.60;;;;;;5128155;27;20669;-75
2022/07/13 06:27:02;;;;;;;8.63;1.95;;;24.20;84.20;;;;;;5125135;27;20035;-75
2022/07/13 06:29:27;;;;;;;7.53;2.08;;;24.30;83.90;;;;;;5125192;27;20043;-75
2022/07/13 06:31:53;;;;;;;5.18;1.95;;;24.30;83.40;;;;;;5124552;27;20600;-75
2022/07/13 06:34:19;;;;;;;5.15;2.42;;;24.40;82.80;;;;;;5125873;27;20092;-75
2022/07/13 06:36:45;;;;;;;10.00;2.22;;;24.50;82.40;;;;;;5124978;27;20138;-75
2022/07/13 06:39:10;;;;;;;7.85;1.88;;;24.50;82.00;;;;;;5125894;27;20047;-75
2022/07/13 06:41:36;;;;;;;6.45;2.00;;;24.60;81.60;;;;;;5125768;27;20133;-75
2022/07/13 06:44:02;;;;;;;6.40;2.30;;;24.70;81.00;;;;;;5127347;27;20038;-75
2022/07/13 06:46:28;;;;;;;4.85;2.25;;;24.70;80.70;;;;;;5123869;27;20046;-75
2022/07/13 06:48:54;;;;;;;8.45;2.53;;;24.70;80.40;;;;;;5127352;27;20039;-75
2022/07/13 06:51:20;;;;;;;8.55;2.50;;;24.80;80.20;;;;;;5124401;27;20714;-75
2022/07/13 06:53:45;;;;;;;9.90;1.83;;;24.80;79.80;;;;;;5125268;27;20054;-75
2022/07/13 06:56:11;;;;;;;2.85;1.25;;;24.80;79.60;;;;;;5125263;27;20051;-75
2022/07/13 06:58:37;;;;;;;3.20;1.80;;;24.90;79.20;;;;;;5123405;27;20048;-75
2022/07/13 07:01:03;;;;;;;4.53;1.75;;;24.90;79.10;;;;;;5126861;27;20539;-75
2022/07/13 07:03:29;;;;;;;3.95;1.95;;;24.90;79.00;;;;;;5124866;27;20192;-75
2022/07/13 07:05:56;;;;;;;9.55;1.92;;;24.90;79.10;;;;;;5125136;27;20116;-75
2022/07/13 07:08:22;;;;;;;6.63;2.13;;;25.00;79.20;;;;;;5124896;27;20472;-75
2022/07/13 07:10:48;;;;;;;4.60;1.70;;;25.10;79.60;;;;;;5125654;27;20040;-75
2022/07/13 07:13:14;;;;;;;2.42;1.60;;;25.10;80.50;;;;;;5127344;27;20122;-75
2022/07/13 07:15:40;;;;;;;4.53;1.55;;;25.10;80.10;;;;;;5125170;27;20031;-75
2022/07/13 07:18:06;;;;;;;6.97;2.30;;;25.10;80.10;;;;;;5126566;27;20070;-75
2022/07/13 07:20:33;;;;;;;3.08;1.60;;;25.20;80.10;;;;;;5124947;27;20054;-75
2022/07/13 07:23:00;;;;;;;7.63;1.55;;;25.20;79.80;;;;;;5126358;27;20526;-75
2022/07/13 07:25:26;;;;;;;4.88;1.90;;;25.30;80.00;;;;;;5123027;27;20050;-75
2022/07/13 07:27:52;;;;;;;4.07;1.58;;;25.30;79.50;;;;;;5123786;27;20486;-75
2022/07/13 07:30:18;;;;;;;6.97;1.88;;;25.30;79.10;;;;;;5127006;27;20051;-75
2022/07/13 07:32:44;;;;;;;3.35;1.90;;;25.40;78.80;;;;;;5124435;27;20058;-75
2022/07/13 07:35:10;;;;;;;6.28;2.00;;;25.50;78.60;;;;;;5123898;27;20046;-75
2022/07/13 07:37:38;;;;;;;5.78;1.90;;;25.50;78.60;;;;;;5108617;27;20035;-75
2022/07/13 07:40:05;;;;;;;4.38;1.67;;;25.60;78.60;;;;;;5122814;27;20064;-75
2022/07/13 07:42:31;;;;;;;10.18;1.90;;;25.60;78.50;;;;;;5128647;27;20817;-75
2022/07/13 07:44:56;;;;;;;5.13;2.08;;;25.70;78.40;;;;;;5128083;27;20447;-75
2022/07/13 07:47:25;;;;;;;4.25;2.00;;;25.70;78.30;;;;;;5123195;27;20462;-74
2022/07/13 07:49:52;;;;;;;3.03;1.60;;;25.80;78.30;;;;;;5126982;27;20043;-74
2022/07/13 07:52:18;;;;;;;4.65;1.67;;;25.80;77.90;;;;;;5122771;27;20543;-75
2022/07/13 07:54:45;;;;;;;4.18;1.58;;;25.90;77.60;;;;;;5123124;27;20054;-75
2022/07/13 07:57:11;;;;;;;3.72;2.08;;;25.90;77.50;;;;;;5125173;27;20401;-75
2022/07/13 07:59:37;;;;;;;3.38;1.77;;;26.00;77.80;;;;;;5125891;27;20594;-75
2022/07/13 08:02:03;;;;;;;6.03;2.08;;;26.00;77.80;;;;;;5123753;27;20463;-75
2022/07/13 08:04:29;;;;;;;4.70;1.65;;;26.10;77.60;;;;;;5122893;27;20047;-75
2022/07/13 08:06:54;;;;;;;15.57;2.40;;;26.10;77.40;;;;;;5126287;27;20050;-75
2022/07/13 08:09:20;;;;;;;2.10;1.50;;;26.20;77.20;;;;;;5122487;27;20095;-75
2022/07/13 08:11:46;;;;;;;3.40;2.22;;;26.10;77.10;;;;;;5124328;27;20699;-74
2022/07/13 08:14:12;;;;;;;3.67;1.60;;;26.20;77.20;;;;;;5125154;27;20425;-75
2022/07/13 08:16:38;;;;;;;5.63;2.85;;;26.20;77.20;;;;;;5123350;27;20039;-75
2022/07/13 08:19:04;;;;;;;3.45;1.92;;;26.20;77.20;;;;;;5121145;27;20114;-74
2022/07/13 08:21:30;;;;;;;5.20;2.03;;;26.10;77.20;;;;;;5125802;27;20040;-75
2022/07/13 08:23:55;;;;;;;5.88;2.10;;;26.00;77.10;;;;;;5123005;27;20145;-76
2022/07/13 08:26:27;;;;;;;5.13;1.80;;;25.90;77.10;;;;;;5123012;27;20656;-75
2022/07/13 08:28:54;;;;;;;7.53;1.88;;;25.70;77.20;;;;;;5123647;27;20633;-85
2022/07/13 08:31:22;;;;;;;4.97;1.75;;;25.70;77.30;;;;;;5124093;27;20117;-76
2022/07/13 08:39:17;;;;;;;7.47;2.03;;;25.50;77.30;;;;;;5119085;27;20039;-75
2022/07/13 08:41:44;;;;;;;3.70;1.70;;;25.50;77.30;;;;;;5125731;27;20509;-76
2022/07/13 08:44:10;;;;;;;2.90;1.58;;;25.50;77.20;;;;;;5123936;27;20040;-76
2022/07/13 08:46:35;;;;;;;4.32;2.40;;;25.50;77.00;;;;;;5123215;27;20044;-75
2022/07/13 08:49:02;;;;;;;4.05;1.73;;;25.50;77.00;;;;;;5122941;27;20647;-76
2022/07/13 08:51:31;;;;;;;4.18;1.88;;;25.50;77.00;;;;;;5122610;27;20097;-76
2022/07/13 08:53:57;;;;;;;2.65;1.63;;;25.50;76.80;;;;;;5125525;27;20786;-75
2022/07/13 08:56:23;;;;;;;2.22;1.45;;;25.50;76.80;;;;;;5124901;27;20051;-77
2022/07/13 08:58:49;;;;;;;7.32;3.38;;;25.50;76.90;;;;;;5121498;27;20135;-75
2022/07/13 09:01:14;;;;;;;8.88;4.80;;;25.40;76.90;;;;;;5120312;27;20094;-75
2022/07/13 09:03:41;;;;;;;7.85;4.25;;;25.40;76.90;;;;;;5122450;27;20108;-75
2022/07/13 09:06:07;;;;;;;5.60;3.83;;;25.40;77.10;;;;;;5126075;27;20199;-75
2022/07/13 09:08:43;;;;;;;5.45;1.95;;;25.40;77.30;;;;;;5126394;27;20550;-75
2022/07/13 09:11:09;;;;;;;3.45;1.85;;;25.40;76.70;;;;;;5128357;27;20126;-75
2022/07/13 09:13:45;;;;;;;5.80;2.35;;;25.40;76.70;;;;;;5127710;27;20043;-75
2022/07/13 09:16:13;;;;;;;4.15;2.05;;;25.40;76.60;;;;;;5128234;27;20071;-74
2022/07/13 09:18:40;;;;;;;9.80;1.95;;;25.50;76.50;;;;;;5126522;27;20083;-75
2022/07/13 09:21:07;;;;;;;2.88;1.60;;;25.60;75.70;;;;;;5127723;27;20107;-75
2022/07/13 09:23:32;;;;;;;3.30;1.67;;;25.60;75.60;;;;;;5125240;27;20051;-75
2022/07/13 09:25:58;;;;;;;4.72;1.83;;;25.60;75.60;;;;;;5129354;27;20043;-75
2022/07/13 09:28:24;;;;;;;3.58;1.65;;;25.70;75.50;;;;;;5128524;27;20054;-75
2022/07/13 09:30:50;;;;;;;1.95;1.33;;;25.70;74.70;;;;;;5125022;27;20981;-75
2022/07/13 09:33:32;;;;;;;2.28;1.73;;;25.80;74.20;;;;;;5126273;27;20062;-75
2022/07/13 09:36:07;;;;;;;2.17;1.55;;;25.90;74.00;;;;;;5128098;27;20047;-74
2022/07/13 09:38:38;;;;;;;3.08;1.85;;;25.80;74.30;;;;;;5127063;27;20039;-75
2022/07/13 09:41:19;;;;;;;7.97;3.95;;;25.80;74.50;;;;;;5127218;27;20040;-74
2022/07/13 09:46:55;;;;;;;3.47;1.40;;;25.80;74.30;;;;;;5128585;27;20097;-75
2022/07/13 09:49:41;;;;;;;2.47;1.50;;;25.90;74.20;;;;;;5128455;27;20050;-75
2022/07/13 09:52:09;;;;;;;3.80;2.28;;;25.90;73.80;;;;;;5125754;27;20168;-75
2022/07/13 09:54:39;;;;;;;1.63;1.30;;;26.00;73.80;;;;;;5128004;27;20123;-75
2022/07/13 09:57:08;;;;;;;4.45;1.38;;;26.10;73.30;;;;;;5126003;27;20055;-75
2022/07/13 09:59:36;;;;;;;2.50;1.58;;;26.20;73.20;;;;;;5126768;27;20071;-75
2022/07/13 10:02:03;;;;;;;2.53;1.38;;;26.10;73.20;;;;;;5126357;27;20039;-75
2022/07/13 10:04:30;;;;;;;2.30;1.55;;;26.20;73.20;;;;;;5127074;27;20112;-75
2022/07/13 10:06:56;;;;;;;1.70;1.10;;;26.20;73.10;;;;;;5129049;27;20031;-75
2022/07/13 10:09:30;;;;;;;2.35;1.08;;;26.30;73.00;;;;;;5125857;27;20073;-75
2022/07/13 10:12:00;;;;;;;4.03;2.00;;;26.30;73.00;;;;;;5127135;27;20075;-75
2022/07/13 10:14:27;;;;;;;1.67;1.13;;;26.30;72.80;;;;;;5126984;27;20044;-75
2022/07/13 10:17:06;;;;;;;2.72;1.52;;;26.40;72.90;;;;;;5127916;27;20444;-75
2022/07/13 10:19:34;;;;;;;2.22;1.38;;;26.30;72.40;;;;;;5128570;27;20047;-75
2022/07/13 10:22:11;;;;;;;3.00;1.20;;;26.30;72.50;;;;;;5128502;27;20556;-75
2022/07/13 10:24:37;;;;;;;3.15;1.40;;;26.30;72.60;;;;;;5129406;27;20035;-75
2022/07/13 10:27:21;;;;;;;3.15;1.17;;;26.30;72.90;;;;;;5127618;27;20676;-75
2022/07/13 10:29:48;;;;;;;4.10;1.38;;;26.40;72.90;;;;;;5129324;27;20039;-75
2022/07/13 10:32:17;;;;;;;6.72;1.40;;;26.30;73.00;;;;;;5126315;27;20085;-75
2022/07/13 10:35:05;;;;;;;4.55;1.27;;;26.30;73.30;;;;;;5128144;27;20039;-75
2022/07/13 10:37:56;;;;;;;4.53;1.40;;;26.40;73.30;;;;;;5126113;27;20130;-75
2022/07/13 10:40:28;;;;;;;2.78;1.60;;;26.60;72.90;;;;;;5128025;27;20200;-75
2022/07/13 10:42:58;;;;;;;2.67;1.35;;;26.50;73.00;;;;;;5127134;27;20945;-75
2022/07/13 10:48:04;;;;;;;3.60;1.20;;;26.50;73.50;;;;;;5125613;27;20241;-75
2022/07/13 10:50:36;;;;;;;1.58;1.00;;;26.50;73.40;;;;;;5125838;27;20039;-75
2022/07/13 10:53:02;;;;;;;1.55;1.00;;;26.50;73.40;;;;;;5126018;27;20054;-75
2022/07/13 10:55:33;;;;;;;4.32;1.48;;;26.50;73.20;;;;;;5126436;27;20039;-75
2022/07/13 10:58:00;;;;;;;1.45;1.10;;;26.60;73.40;;;;;;5127051;27;20088;-75
2022/07/13 11:00:43;;;;;;;2.63;1.10;;;26.60;73.30;;;;;;5126589;27;20433;-75
2022/07/13 11:03:31;;;;;;;2.28;1.15;;;26.70;73.20;;;;;;5127576;27;20039;-75
2022/07/13 11:06:24;;;;;;;1.35;0.90;;;26.70;72.90;;;;;;5125144;27;20441;-76
2022/07/13 11:09:10;;;;;;;1.58;1.00;;;26.80;72.50;;;;;;5122224;27;20047;-75
2022/07/13 11:11:45;;;;;;;1.23;1.08;;;26.90;72.30;;;;;;5126943;27;20044;-75
2022/07/13 11:14:39;;;;;;;5.30;1.95;;;27.00;72.20;;;;;;5125971;27;20042;-74
2022/07/13 11:17:15;;;;;;;4.18;1.88;;;26.90;72.00;;;;;;5116477;27;20055;-75
2022/07/13 11:19:59;;;;;;;1.92;1.23;;;27.00;72.00;;;;;;5126867;27;20511;-75
2022/07/13 11:25:13;;;;;;;2.03;1.35;;;27.00;71.80;;;;;;5123533;27;20047;-74
2022/07/13 11:25:32;;;;;;;1.45;1.00;;;26.90;71.90;;;;;;5126584;27;20043;-74
2022/07/13 11:28:13;;;;;;;2.70;1.17;;;26.90;71.90;;;;;;5124545;27;20073;-74
2022/07/13 11:30:44;;;;;;;3.00;0.95;;;27.00;71.80;;;;;;5123450;27;20138;-74
2022/07/13 11:33:12;;;;;;;5.70;1.00;;;27.10;71.40;;;;;;5127042;27;20043;-74
2022/07/13 11:35:44;;;;;;;2.13;1.23;;;27.20;71.30;;;;;;5125936;27;20501;-74
2022/07/13 11:38:10;;;;;;;;;;;27.20;71.10;;;;;;5126007;27;20063;-74
2022/07/13 11:40:36;;;;;;;2.75;1.30;;;27.30;70.80;;;;;;5125755;27;19958;-75
2022/07/13 11:43:03;;;;;;;3.00;1.50;;;27.30;71.00;;;;;;5123618;27;20398;-74
2022/07/13 11:45:32;;;;;;;1.83;1.05;;;27.30;70.70;;;;;;5126058;27;20657;-74
2022/07/13 11:48:03;;;;;;;1.90;1.35;;;27.30;70.60;;;;;;5125515;27;20046;-74
2022/07/13 11:50:43;;;;;;;1.80;1.00;;;27.30;70.60;;;;;;5126024;27;20035;-75
2022/07/13 11:53:18;;;;;;;1.58;1.10;;;27.30;70.40;;;;;;5122801;27;20568;-75
2022/07/13 11:55:44;;;;;;;1.45;0.98;;;27.40;70.20;;;;;;5124437;27;20048;-75
2022/07/13 11:58:28;;;;;;;1.90;1.00;;;27.50;69.80;;;;;;5125868;27;20107;-74
2022/07/13 12:00:54;;;;;;;1.75;1.17;;;27.50;69.60;;;;;;5127640;27;20587;-74
2022/07/13 12:03:33;;;;;;;2.78;1.30;;;27.60;69.70;;;;;;5123966;27;20047;-74
2022/07/13 12:06:07;;;;;;;2.53;1.27;;;27.60;69.40;;;;;;5124305;27;20035;-74
2022/07/13 12:08:38;;;;;;;4.00;1.50;;;27.70;69.20;;;;;;5125516;27;20589;-74
2022/07/13 12:11:06;;;;;;;5.32;2.15;;;27.70;69.10;;;;;;5124856;27;20043;-74
2022/07/13 12:13:37;;;;;;;4.78;3.10;;;27.70;69.10;;;;;;5122831;27;20051;-74
2022/07/13 12:16:04;;;;;;;3.47;2.30;;;27.70;69.00;;;;;;5126546;27;20043;-74
2022/07/13 12:18:30;;;;;;;4.95;2.97;;;27.90;69.00;;;;;;5125816;27;20113;-74
2022/07/13 12:20:57;;;;;;;6.35;4.53;;;27.90;68.90;;;;;;5122622;27;20040;-74
2022/07/13 12:23:23;;;;;;;5.68;3.75;;;28.00;68.70;;;;;;5123339;27;20031;-75
2022/07/13 12:26:05;;;;;;;5.03;2.42;;;28.00;68.70;;;;;;5121139;27;20054;-75
2022/07/13 12:28:31;;;;;;;4.57;2.90;;;28.00;68.80;;;;;;5124294;27;20754;-75
2022/07/13 12:30:59;;;;;;;7.57;3.58;;;27.90;69.10;;;;;;5116283;27;20080;-75
2022/07/13 12:33:25;;;;;;;5.20;3.65;;;27.90;69.30;;;;;;5123156;27;20140;-75
2022/07/13 12:36:04;;;;;;;4.82;3.65;;;27.90;69.50;;;;;;5125748;27;20043;-74
2022/07/13 12:38:31;;;;;;;6.18;3.22;;;27.80;69.70;;;;;;5121084;27;20035;-75
2022/07/13 12:41:00;;;;;;;5.97;3.05;;;27.90;69.80;;;;;;5123330;27;20567;-74
2022/07/13 12:43:30;;;;;;;5.47;3.63;;;28.00;69.80;;;;;;5124745;27;20050;-74
2022/07/13 12:46:03;;;;;;;5.40;3.22;;;27.90;70.00;;;;;;5121307;27;20054;-75
2022/07/13 12:48:33;;;;;;;5.80;3.42;;;28.00;69.80;;;;;;5120920;27;20039;-74
2022/07/13 12:51:06;;;;;;;7.55;3.55;;;28.10;69.30;;;;;;5126546;27;20039;-74
2022/07/13 12:53:48;;;;;;;5.95;3.25;;;28.20;69.00;;;;;;5124595;27;20128;-74
2022/07/13 12:56:15;;;;;;;4.95;3.70;;;28.20;68.70;;;;;;5124280;27;20084;-75
2022/07/13 12:59:00;;;;;;;4.75;3.88;;;28.30;68.70;;;;;;5123285;27;20155;-74
2022/07/13 13:01:34;;;;;;;4.70;3.40;;;28.20;68.40;;;;;;5122464;27;20066;-75
2022/07/13 13:04:02;;;;;;;4.38;3.00;;;28.20;68.50;;;;;;5107284;27;20047;-74